Time;durP1;ratioP1;P1;durP2;ratioP2;P2;SDS_P1;SDS_P2;PMS_P1;PMS_P2;Temp;Humidity;BMP_temperature;BMP_pressure;BME280_temperature;BME280_humidity;BME280_pressure;Samples;Min_cycle;Max_cycle;Signal;HPM_P1;HPM_P2
2021/07/15 00:00:50;;;;;;;8.90;7.20;;;24.60;92.10;;;;;;5015803;28;20026;-89
2021/07/15 00:03:19;;;;;;;9.45;6.70;;;24.50;92.20;;;;;;5015516;28;20022;-89
2021/07/15 00:05:45;;;;;;;7.22;6.47;;;24.50;92.30;;;;;;5019048;28;20022;-89
2021/07/15 00:08:14;;;;;;;9.23;6.63;;;24.50;92.40;;;;;;5034863;28;20053;-89
2021/07/15 00:10:57;;;;;;;8.77;7.47;;;24.40;92.40;;;;;;5035200;28;20049;-89
2021/07/15 00:13:24;;;;;;;8.00;6.53;;;24.50;92.60;;;;;;5035780;28;20387;-89
2021/07/15 00:15:53;;;;;;;7.90;6.40;;;24.40;92.70;;;;;;5035073;28;20383;-89
2021/07/15 00:18:23;;;;;;;8.18;6.88;;;24.40;92.80;;;;;;5035047;28;20033;-88
2021/07/15 00:20:49;;;;;;;9.10;6.50;;;24.40;92.90;;;;;;5035149;28;20022;-89
2021/07/15 00:23:18;;;;;;;7.75;6.43;;;24.30;93.00;;;;;;5034979;28;20026;-89
2021/07/15 00:25:45;;;;;;;7.13;6.43;;;24.30;93.00;;;;;;5030324;28;20112;-89
2021/07/15 00:28:12;;;;;;;9.15;6.75;;;24.30;93.10;;;;;;5014941;28;20116;-89
2021/07/15 00:30:37;;;;;;;10.90;7.32;;;24.30;93.10;;;;;;5014989;28;20029;-89
2021/07/15 00:33:04;;;;;;;9.02;6.43;;;24.20;93.20;;;;;;5015116;28;20022;-89
2021/07/15 00:35:32;;;;;;;12.18;7.40;;;24.20;93.20;;;;;;5015538;28;20018;-89
2021/07/15 00:37:58;;;;;;;10.00;6.70;;;24.20;93.30;;;;;;5015317;28;20061;-89
2021/07/15 00:40:24;;;;;;;8.10;6.60;;;24.20;93.30;;;;;;5015072;28;20057;-89
2021/07/15 00:42:50;;;;;;;8.80;6.93;;;24.20;93.40;;;;;;5014914;28;20040;-89
2021/07/15 00:45:19;;;;;;;11.32;7.07;;;24.10;93.50;;;;;;5014834;28;20087;-89
2021/07/15 00:47:46;;;;;;;8.27;6.32;;;24.10;93.50;;;;;;5014828;28;20068;-89
2021/07/15 00:50:13;;;;;;;11.52;6.90;;;24.10;93.60;;;;;;5015648;28;20506;-89
2021/07/15 00:52:40;;;;;;;10.38;6.50;;;24.10;93.70;;;;;;5014600;28;20053;-89
2021/07/15 00:55:11;;;;;;;12.48;7.32;;;24.10;93.80;;;;;;5014579;28;20109;-89
2021/07/15 00:57:37;;;;;;;10.25;7.03;;;24.00;93.80;;;;;;5014206;28;20022;-89
2021/07/15 01:00:07;;;;;;;7.85;7.05;;;24.00;93.80;;;;;;5014665;28;20034;-89
2021/07/15 01:02:33;;;;;;;11.40;7.05;;;24.00;93.90;;;;;;5014966;28;20025;-89
2021/07/15 01:04:59;;;;;;;8.43;7.22;;;23.90;93.90;;;;;;5016936;28;20530;-89
2021/07/15 01:07:24;;;;;;;10.43;7.10;;;23.90;93.90;;;;;;5033963;28;20056;-89
2021/07/15 01:09:51;;;;;;;9.10;7.13;;;23.90;94.00;;;;;;5034394;28;20025;-89
2021/07/15 01:12:38;;;;;;;12.60;7.85;;;23.90;94.10;;;;;;5034010;28;20079;-89
2021/07/15 01:15:09;;;;;;;9.85;7.45;;;23.90;94.10;;;;;;5033970;28;20367;-89
2021/07/15 01:17:54;;;;;;;8.23;7.35;;;23.80;94.20;;;;;;5033580;28;20025;-89
2021/07/15 01:20:51;;;;;;;9.75;7.30;;;23.80;94.30;;;;;;5020769;28;20113;-89
2021/07/15 01:23:44;;;;;;;11.10;7.53;;;23.80;94.30;;;;;;5034056;28;20021;-89
2021/07/15 01:26:44;;;;;;;9.02;7.28;;;23.80;94.30;;;;;;5033823;28;20369;-89
2021/07/15 01:29:28;;;;;;;10.68;6.63;;;23.70;94.30;;;;;;5034159;28;20048;-89
2021/07/15 01:31:57;;;;;;;10.60;6.72;;;23.70;94.30;;;;;;5033574;28;20079;-89
2021/07/15 01:34:23;;;;;;;10.80;7.60;;;23.60;94.30;;;;;;5033763;28;20017;-89
2021/07/15 01:36:53;;;;;;;8.15;7.10;;;23.60;94.30;;;;;;5033711;28;20469;-89
2021/07/15 01:39:26;;;;;;;8.85;6.95;;;23.60;94.30;;;;;;5033631;28;20036;-89
2021/07/15 01:41:56;;;;;;;8.40;7.35;;;23.60;94.30;;;;;;5034058;28;20444;-89
2021/07/15 01:44:29;;;;;;;9.82;7.10;;;23.60;94.30;;;;;;5033644;28;20526;-89
2021/07/15 01:46:55;;;;;;;8.18;6.72;;;23.50;94.30;;;;;;5033455;28;20061;-89
2021/07/15 01:49:22;;;;;;;10.48;7.18;;;23.50;94.30;;;;;;5033498;28;20028;-89
2021/07/15 01:51:49;;;;;;;8.50;6.40;;;23.50;94.30;;;;;;5033309;28;20021;-89
2021/07/15 01:54:16;;;;;;;7.95;6.63;;;23.50;94.30;;;;;;5033801;28;20026;-89
2021/07/15 01:56:42;;;;;;;9.10;7.38;;;23.50;94.30;;;;;;5033862;28;20376;-89
2021/07/15 01:59:12;;;;;;;7.22;6.53;;;23.50;94.30;;;;;;5031956;28;20029;-89
2021/07/15 02:01:41;;;;;;;8.25;6.30;;;23.50;94.20;;;;;;5013688;28;20033;-89
2021/07/15 02:04:08;;;;;;;7.50;6.55;;;23.50;94.20;;;;;;5013703;28;20472;-89
2021/07/15 02:06:36;;;;;;;10.32;6.85;;;23.50;94.20;;;;;;5013464;28;20038;-89
2021/07/15 02:09:06;;;;;;;9.82;6.45;;;23.50;94.30;;;;;;5014005;28;20438;-89
2021/07/15 02:11:33;;;;;;;7.13;5.97;;;23.50;94.30;;;;;;5033333;28;20037;-89
2021/07/15 02:14:05;;;;;;;8.60;5.75;;;23.50;94.30;;;;;;5034055;28;20112;-89
2021/07/15 02:16:33;;;;;;;8.82;6.65;;;23.50;94.30;;;;;;5033509;28;20025;-89
2021/07/15 02:19:01;;;;;;;7.97;6.22;;;23.40;94.30;;;;;;5033268;28;20026;-89
2021/07/15 02:21:31;;;;;;;7.55;6.22;;;23.40;94.30;;;;;;5033401;28;20083;-89
2021/07/15 02:23:57;;;;;;;;;;;23.40;94.40;;;;;;5033814;28;20036;-89
2021/07/15 02:26:25;;;;;;;7.50;5.95;;;23.30;94.40;;;;;;5033080;28;19909;-90
2021/07/15 02:28:51;;;;;;;8.48;6.03;;;23.40;94.40;;;;;;5033575;28;20049;-89
2021/07/15 02:31:21;;;;;;;9.50;6.75;;;23.30;94.50;;;;;;5036981;28;20033;-89
2021/07/15 02:33:56;;;;;;;8.50;6.10;;;23.30;94.40;;;;;;5037264;28;20112;-89
2021/07/15 02:36:25;;;;;;;8.32;5.93;;;23.30;94.50;;;;;;5020262;28;20026;-89
2021/07/15 02:38:53;;;;;;;14.20;6.07;;;23.30;94.60;;;;;;5017826;28;20026;-89
2021/07/15 02:41:20;;;;;;;7.57;6.10;;;23.30;94.70;;;;;;5017047;28;20022;-90
2021/07/15 02:43:47;;;;;;;6.97;6.28;;;23.30;94.70;;;;;;5037016;28;20405;-89
2021/07/15 02:46:14;;;;;;;7.70;5.50;;;23.30;94.80;;;;;;5036886;28;20033;-89
2021/07/15 02:48:39;;;;;;;7.10;5.85;;;23.30;94.80;;;;;;5037262;28;20033;-89
2021/07/15 02:51:05;;;;;;;11.93;6.38;;;23.40;94.90;;;;;;5036734;28;20074;-89
2021/07/15 02:53:32;;;;;;;8.82;6.35;;;23.40;95.00;;;;;;5031961;28;20100;-89
2021/07/15 02:56:23;;;;;;;6.68;5.97;;;23.40;95.00;;;;;;5017689;28;20025;-89
2021/07/15 02:59:33;;;;;;;8.82;6.70;;;23.40;95.10;;;;;;5017120;28;20160;-89
2021/07/15 03:02:33;;;;;;;9.52;7.22;;;23.40;95.30;;;;;;5022634;28;20041;-89
2021/07/15 03:05:08;;;;;;;7.82;6.95;;;23.50;95.10;;;;;;4995123;28;20557;-89
2021/07/15 03:07:38;;;;;;;11.43;7.03;;;23.50;95.20;;;;;;5036176;28;20049;-88
2021/07/15 03:10:05;;;;;;;;;;;23.50;95.20;;;;;;5037115;28;20025;-88
2021/07/15 03:12:34;;;;;;;9.10;6.68;;;23.50;95.20;;;;;;5036554;28;19908;-89
2021/07/15 03:15:01;;;;;;;7.70;6.90;;;23.50;95.20;;;;;;5036234;28;20025;-89
2021/07/15 03:17:34;;;;;;;8.52;6.97;;;23.60;95.30;;;;;;5036207;28;20025;-89
2021/07/15 03:20:04;;;;;;;8.88;7.00;;;23.60;95.30;;;;;;5036227;28;20388;-90
2021/07/15 03:22:33;;;;;;;7.80;6.97;;;23.70;95.30;;;;;;5036213;28;20490;-89
2021/07/15 03:25:03;;;;;;;11.13;7.05;;;23.70;95.20;;;;;;5033407;28;20036;-89
2021/07/15 03:27:31;;;;;;;8.23;6.65;;;23.80;95.20;;;;;;5024730;28;20112;-90
2021/07/15 03:30:00;;;;;;;7.57;6.28;;;23.80;95.20;;;;;;5035460;28;20032;-90
2021/07/15 03:32:27;;;;;;;7.93;6.43;;;23.90;95.10;;;;;;5016132;28;20100;-89
2021/07/15 03:34:54;;;;;;;12.88;6.65;;;23.80;95.00;;;;;;5016293;28;20168;-88
2021/07/15 03:37:20;;;;;;;16.08;12.20;;;23.90;94.90;;;;;;5015823;28;20036;-88
2021/07/15 18:36:28;;;;;;;9.15;4.22;;;28.20;73.80;;;;;;5071230;28;20383;-82
2021/07/15 18:38:54;;;;;;;7.68;4.85;;;27.70;72.40;;;;;;5070998;28;20074;-83
2021/07/15 18:41:19;;;;;;;6.05;4.97;;;27.70;73.90;;;;;;5070804;28;20534;-82
2021/07/15 18:43:45;;;;;;;18.35;12.63;;;27.70;74.70;;;;;;5070783;28;20025;-84
2021/07/15 18:46:11;;;;;;;11.18;8.13;;;27.60;75.40;;;;;;5069497;28;20372;-82
2021/07/15 18:48:36;;;;;;;13.85;7.82;;;27.60;76.40;;;;;;5069000;28;20433;-83
2021/07/15 18:51:02;;;;;;;16.10;10.35;;;27.70;76.90;;;;;;5069926;28;20463;-83
2021/07/15 18:53:28;;;;;;;11.13;7.55;;;27.70;76.90;;;;;;5054331;28;20025;-83
2021/07/15 18:55:54;;;;;;;15.10;7.88;;;27.80;77.10;;;;;;5049735;28;20029;-83
2021/07/15 18:58:22;;;;;;;12.77;7.07;;;27.80;76.80;;;;;;5049867;28;20108;-83
2021/07/15 19:00:48;;;;;;;11.75;6.57;;;27.80;76.70;;;;;;5049760;28;20017;-83
2021/07/15 19:03:13;;;;;;;12.43;6.53;;;27.80;76.70;;;;;;5059908;28;20024;-84
2021/07/15 19:05:39;;;;;;;9.68;6.40;;;27.80;76.90;;;;;;5068345;28;20041;-83
2021/07/15 19:08:05;;;;;;;9.95;6.10;;;27.80;76.70;;;;;;5069902;28;20025;-83
2021/07/15 19:10:31;;;;;;;13.77;6.20;;;27.80;76.40;;;;;;5068863;28;20048;-83
2021/07/15 19:12:57;;;;;;;9.57;6.30;;;27.90;76.70;;;;;;5068743;28;20033;-83
2021/07/15 19:15:25;;;;;;;14.23;6.55;;;27.90;76.80;;;;;;5069915;28;20024;-85
2021/07/15 19:17:52;;;;;;;12.15;6.80;;;27.90;77.20;;;;;;5069178;28;20059;-85
2021/07/15 19:20:20;;;;;;;9.93;6.13;;;27.90;77.70;;;;;;5068636;28;20551;-82
2021/07/15 19:22:47;;;;;;;7.05;6.25;;;27.90;77.70;;;;;;5069708;28;20486;-83
2021/07/15 19:25:14;;;;;;;11.02;6.32;;;27.90;77.50;;;;;;5070139;28;20024;-83
2021/07/15 19:27:40;;;;;;;9.38;6.47;;;27.90;77.70;;;;;;5068457;28;20473;-83
2021/07/15 19:30:18;;;;;;;11.02;7.10;;;27.90;77.90;;;;;;5062546;28;20021;-83
2021/07/15 19:32:44;;;;;;;14.90;7.95;;;27.80;77.90;;;;;;5049758;28;20071;-83
2021/07/15 19:35:10;;;;;;;11.00;6.97;;;27.80;78.30;;;;;;5049400;28;20059;-83
2021/07/15 19:37:36;;;;;;;10.75;7.13;;;27.80;78.60;;;;;;5053574;28;20020;-83
2021/07/15 19:40:04;;;;;;;13.48;7.82;;;27.70;78.80;;;;;;5068422;28;20028;-83
2021/07/15 19:42:29;;;;;;;15.30;7.72;;;27.70;79.00;;;;;;5069520;28;20102;-84
2021/07/15 19:44:55;;;;;;;14.50;7.95;;;27.70;79.10;;;;;;5069980;28;20025;-85
2021/07/15 19:47:21;;;;;;;15.57;8.93;;;27.70;79.40;;;;;;5044314;28;20387;-84
2021/07/15 19:49:47;;;;;;;18.45;10.13;;;27.70;79.70;;;;;;5035232;28;20036;-83
2021/07/15 19:52:13;;;;;;;29.95;19.23;;;27.60;80.10;;;;;;5035063;28;20495;-82
2021/07/15 19:54:38;;;;;;;26.60;17.80;;;27.60;80.40;;;;;;5036207;28;20186;-83
2021/07/15 19:57:04;;;;;;;22.73;14.50;;;27.50;80.40;;;;;;5052773;28;20025;-82
2021/07/15 19:59:30;;;;;;;16.17;10.45;;;27.50;80.50;;;;;;5054924;28;20028;-82
2021/07/15 20:01:55;;;;;;;15.30;9.98;;;27.50;80.50;;;;;;5054845;28;20055;-83
2021/07/15 20:04:21;;;;;;;20.17;8.90;;;27.40;80.40;;;;;;5056202;28;20028;-83
2021/07/15 20:06:47;;;;;;;12.90;8.27;;;27.40;80.30;;;;;;5041795;28;20033;-83
2021/07/15 20:09:12;;;;;;;13.02;8.65;;;27.40;80.50;;;;;;5036371;28;20048;-83
2021/07/15 20:11:38;;;;;;;12.98;8.30;;;27.40;80.60;;;;;;5036453;28;20033;-82
2021/07/15 20:14:04;;;;;;;13.38;8.52;;;27.40;80.50;;;;;;5055805;28;20029;-81
2021/07/15 20:16:30;;;;;;;15.60;8.35;;;27.30;80.70;;;;;;5056023;28;20029;-81
2021/07/15 20:18:55;;;;;;;13.20;9.13;;;27.30;81.00;;;;;;5054448;28;20021;-82
2021/07/15 20:21:21;;;;;;;14.65;8.82;;;27.30;81.10;;;;;;5050492;28;20037;-81
2021/07/15 20:23:46;;;;;;;15.77;9.70;;;27.20;81.30;;;;;;5035993;28;20449;-83
2021/07/15 20:26:13;;;;;;;13.88;9.70;;;27.20;81.90;;;;;;5049010;28;20382;-82
2021/07/15 20:28:38;;;;;;;12.63;8.68;;;27.10;82.00;;;;;;5039705;28;20022;-83
2021/07/15 20:31:06;;;;;;;13.38;9.18;;;27.10;82.20;;;;;;5035930;28;20087;-83
2021/07/15 20:33:38;;;;;;;15.35;8.50;;;27.10;83.10;;;;;;5034338;28;20029;-83
2021/07/15 20:36:04;;;;;;;13.02;8.32;;;27.00;83.00;;;;;;5034246;28;20081;-83
2021/07/15 20:38:31;;;;;;;9.80;7.38;;;27.00;82.90;;;;;;5034327;28;20083;-83
2021/07/15 20:40:59;;;;;;;15.05;7.18;;;27.00;82.80;;;;;;5034229;28;20472;-84
2021/07/15 20:43:25;;;;;;;13.35;7.03;;;27.00;83.10;;;;;;5034158;28;20029;-83
2021/07/15 20:45:51;;;;;;;9.07;5.95;;;27.00;83.40;;;;;;5034410;28;20541;-83
2021/07/15 20:48:17;;;;;;;8.38;6.20;;;27.00;83.60;;;;;;5034109;28;20041;-83
2021/07/15 20:50:43;;;;;;;10.45;6.95;;;27.00;83.80;;;;;;5033965;28;20026;-83
2021/07/15 20:53:08;;;;;;;11.10;6.85;;;26.90;84.00;;;;;;5034021;28;20112;-83
2021/07/15 20:55:35;;;;;;;10.85;7.00;;;26.90;84.20;;;;;;5033923;28;20056;-83
2021/07/15 20:58:01;;;;;;;10.13;6.88;;;26.90;84.40;;;;;;5032960;28;20026;-83
2021/07/15 21:00:27;;;;;;;9.13;6.75;;;26.90;84.70;;;;;;5035110;28;20032;-83
2021/07/15 21:02:53;;;;;;;9.38;6.53;;;26.90;84.90;;;;;;5035143;28;20499;-83
2021/07/15 21:05:18;;;;;;;10.98;6.78;;;26.90;85.20;;;;;;5033802;28;20021;-83
2021/07/15 21:07:46;;;;;;;10.70;7.07;;;26.80;85.30;;;;;;5035145;28;20029;-82
2021/07/15 21:10:13;;;;;;;9.55;6.47;;;26.80;85.50;;;;;;5034412;28;20017;-83
2021/07/15 21:12:39;;;;;;;12.80;6.65;;;26.80;85.70;;;;;;5033868;28;20037;-82
2021/07/15 21:15:06;;;;;;;11.00;6.85;;;26.80;85.80;;;;;;5034781;28;20380;-82
2021/07/15 21:17:32;;;;;;;11.13;7.07;;;26.80;86.10;;;;;;5034054;28;20029;-83
2021/07/15 21:19:58;;;;;;;7.55;6.00;;;26.80;86.20;;;;;;5033500;28;20017;-83
2021/07/15 21:22:25;;;;;;;8.45;6.18;;;26.80;86.30;;;;;;5034946;28;20025;-83
2021/07/15 21:24:51;;;;;;;9.73;6.70;;;26.70;86.50;;;;;;5034590;28;20064;-83
2021/07/15 21:27:17;;;;;;;9.93;7.30;;;26.70;86.70;;;;;;5034617;28;20108;-83
2021/07/15 21:29:43;;;;;;;8.85;6.28;;;26.60;86.80;;;;;;5034567;28;20422;-83
2021/07/15 21:32:09;;;;;;;13.15;6.93;;;26.60;87.00;;;;;;5034494;28;20124;-83
2021/07/15 21:34:36;;;;;;;9.15;6.82;;;26.60;87.20;;;;;;5032866;28;20045;-83
2021/07/15 21:37:02;;;;;;;11.38;7.07;;;26.60;87.50;;;;;;5033126;28;20026;-83
2021/07/15 21:39:27;;;;;;;11.90;7.22;;;26.50;87.60;;;;;;5034399;28;20490;-83
2021/07/15 21:41:53;;;;;;;11.35;7.15;;;26.50;87.90;;;;;;5033081;28;20056;-83
2021/07/15 21:44:19;;;;;;;11.27;6.60;;;26.50;88.00;;;;;;5043806;28;20372;-83
2021/07/15 21:46:44;;;;;;;9.85;6.57;;;26.50;88.20;;;;;;5054148;28;20384;-83
2021/07/15 21:49:10;;;;;;;8.65;6.70;;;26.40;88.30;;;;;;5052899;28;20163;-83
2021/07/15 21:51:36;;;;;;;10.80;6.50;;;26.40;88.50;;;;;;5052871;28;20029;-83
2021/07/15 21:54:01;;;;;;;8.85;6.45;;;26.40;88.60;;;;;;5046377;28;20024;-83
2021/07/15 21:56:27;;;;;;;11.50;6.93;;;26.40;88.50;;;;;;5034002;28;20075;-83
2021/07/15 21:58:52;;;;;;;7.60;5.78;;;26.40;88.50;;;;;;5032564;28;20033;-83
2021/07/15 22:01:18;;;;;;;7.57;6.40;;;26.30;88.30;;;;;;5034004;28;20050;-83
2021/07/15 22:03:44;;;;;;;7.38;6.30;;;26.40;88.20;;;;;;5033882;28;20449;-83
2021/07/15 22:06:10;;;;;;;9.65;6.30;;;26.30;88.20;;;;;;5033808;28;20025;-83
2021/07/15 22:08:43;;;;;;;8.43;5.97;;;26.30;88.10;;;;;;5033900;28;20049;-83
2021/07/15 22:11:08;;;;;;;8.00;6.65;;;26.30;88.10;;;;;;5033640;28;20028;-83
2021/07/15 22:13:34;;;;;;;6.80;5.88;;;26.30;87.80;;;;;;5033862;28;20030;-83
2021/07/15 22:16:00;;;;;;;8.45;5.40;;;26.30;88.00;;;;;;5033720;28;20040;-83
2021/07/15 22:18:26;;;;;;;8.80;6.10;;;26.30;87.90;;;;;;5034004;28;20029;-83
2021/07/15 22:20:51;;;;;;;11.00;6.55;;;26.20;87.90;;;;;;5033742;28;20072;-83
2021/07/15 22:23:19;;;;;;;8.52;6.00;;;26.10;87.90;;;;;;5032757;28;20117;-83
2021/07/15 22:25:45;;;;;;;6.78;6.03;;;26.00;88.10;;;;;;5032397;28;20096;-83
2021/07/15 22:28:11;;;;;;;7.93;5.97;;;26.00;88.20;;;;;;5033620;28;20104;-83
2021/07/15 22:30:37;;;;;;;8.15;5.68;;;26.00;88.30;;;;;;5033665;28;20487;-83
2021/07/15 22:33:07;;;;;;;6.82;5.43;;;26.00;88.50;;;;;;5033575;28;20544;-83
2021/07/15 22:35:39;;;;;;;9.32;6.10;;;26.00;88.40;;;;;;5032053;28;20061;-83
2021/07/15 22:38:05;;;;;;;7.25;5.80;;;26.00;88.40;;;;;;5033660;28;20021;-83
2021/07/15 22:40:30;;;;;;;6.78;5.93;;;26.00;88.10;;;;;;5032203;28;20026;-83
2021/07/15 22:42:56;;;;;;;8.85;5.53;;;26.00;87.90;;;;;;5032302;28;20109;-83
2021/07/15 22:45:22;;;;;;;6.50;5.50;;;26.00;87.90;;;;;;5032212;28;20026;-83
2021/07/15 22:47:48;;;;;;;9.02;5.13;;;26.00;88.10;;;;;;5032032;28;20033;-83
2021/07/15 22:50:15;;;;;;;8.10;5.75;;;26.00;88.00;;;;;;5033457;28;20494;-83
2021/07/15 22:52:41;;;;;;;8.82;5.75;;;26.00;87.80;;;;;;5032097;28;20034;-83
2021/07/15 22:55:08;;;;;;;9.23;4.90;;;26.00;87.50;;;;;;5033413;28;20386;-83
2021/07/15 22:57:34;;;;;;;6.40;5.35;;;25.90;87.50;;;;;;5033290;28;20031;-83
2021/07/15 23:00:12;;;;;;;8.80;5.50;;;26.00;87.50;;;;;;5033240;28;20122;-83
2021/07/15 23:02:38;;;;;;;8.23;6.00;;;25.90;87.40;;;;;;5032104;28;20079;-83
2021/07/15 23:05:09;;;;;;;8.60;5.65;;;25.90;87.40;;;;;;5032037;28;20029;-83
2021/07/15 23:07:39;;;;;;;8.50;5.53;;;25.90;87.50;;;;;;5033241;28;20025;-83
2021/07/15 23:10:07;;;;;;;19.92;6.25;;;25.90;87.50;;;;;;5031990;28;20522;-83
2021/07/15 23:12:32;;;;;;;8.52;6.00;;;25.90;88.40;;;;;;5033195;28;20029;-83
2021/07/15 23:14:58;;;;;;;7.88;5.85;;;25.80;87.80;;;;;;5033467;28;20024;-83
2021/07/15 23:17:24;;;;;;;6.53;5.88;;;25.80;87.90;;;;;;5033159;28;20030;-83
2021/07/15 23:19:49;;;;;;;7.43;5.55;;;25.80;88.20;;;;;;5033232;28;20029;-83
2021/07/15 23:22:15;;;;;;;6.05;5.45;;;25.80;88.40;;;;;;5035456;28;20032;-83
2021/07/15 23:24:40;;;;;;;7.03;5.90;;;25.80;88.60;;;;;;5036885;28;20032;-83
2021/07/15 23:27:06;;;;;;;6.00;5.40;;;25.80;88.50;;;;;;5035630;28;20079;-83
2021/07/15 23:29:32;;;;;;;5.80;5.20;;;25.70;88.40;;;;;;5035614;28;20120;-83
2021/07/15 23:31:57;;;;;;;6.35;5.63;;;25.70;88.50;;;;;;5036739;28;20026;-83
2021/07/15 23:34:23;;;;;;;6.95;5.35;;;25.70;88.50;;;;;;5035181;28;20060;-83
2021/07/15 23:36:49;;;;;;;6.72;5.32;;;25.60;88.30;;;;;;5036714;28;20030;-83
2021/07/15 23:39:14;;;;;;;7.13;5.40;;;25.60;88.40;;;;;;5036615;28;20052;-83
2021/07/15 23:41:40;;;;;;;6.10;5.50;;;25.60;88.40;;;;;;5036647;28;20034;-83
2021/07/15 23:44:06;;;;;;;6.15;5.13;;;25.60;88.50;;;;;;5035303;28;20022;-83
2021/07/15 23:46:31;;;;;;;5.60;5.05;;;25.60;88.80;;;;;;5036499;28;20511;-83
2021/07/15 23:48:57;;;;;;;9.10;5.43;;;25.60;89.00;;;;;;5035240;28;20030;-83
2021/07/15 23:51:23;;;;;;;6.55;5.53;;;25.50;88.70;;;;;;5035177;28;20026;-83
2021/07/15 23:53:48;;;;;;;7.03;5.50;;;25.50;88.80;;;;;;5035119;28;20029;-83
2021/07/15 23:56:14;;;;;;;6.20;5.50;;;25.50;88.80;;;;;;5034997;28;20022;-83
2021/07/15 23:58:40;;;;;;;7.45;5.43;;;25.40;88.80;;;;;;5035260;28;20372;-82
